Terminal Aerodrome Forecast
Issued by NWS

Home | Current Version | Previous Version | Text Only | Print | Product List | Glossary On
Versions: 1 2 3 4 5 6 7 8 9 10 11 12 13 14 15 16 17 18 19 20 21 22 23 24 25 26 27 28
000
FTUS45 KPSR 251120
TAFPHX
TAF
KPHX 251120Z 2512/2612 02007KT P6SM SKC
     FM251500 07009KT P6SM SKC
      TEMPO 2516/2520 07015G24KT
     FM260200 02005KT P6SM SKC
     FM260600 08012KT P6SM SCT250=

USA.gov is the U.S. government's official web portal to all federal, state and local government web resources and services.